Time;durP1;ratioP1;P1;durP2;ratioP2;P2;SDS_P1;SDS_P2;PMS_P1;PMS_P2;Temp;Humidity;BMP_temperature;BMP_pressure;BME280_temperature;BME280_humidity;BME280_pressure;Samples;Min_cycle;Max_cycle;Signal;HPM_P1;HPM_P2
2022/06/19 00:01:09;;;;;;;7.80;5.85;;;;;;;;;;4401904;32;20224;-57
2022/06/19 00:03:41;;;;;;;6.45;3.22;;;;;;;;;;4402480;32;20255;-57
2022/06/19 00:06:07;;;;;;;4.40;4.00;;;;;;;;;;4403824;32;20328;-57
2022/06/19 00:08:33;;;;;;;6.05;4.15;;;;;;;;;;4404731;32;20731;-57
2022/06/19 00:10:59;;;;;;;6.00;4.05;;;;;;;;;;4394331;32;20601;-58
2022/06/19 00:13:25;;;;;;;7.12;3.60;;;;;;;;;;4387220;32;20364;-57
2022/06/19 00:15:51;;;;;;;5.28;3.85;;;;;;;;;;4404728;32;20261;-57
2022/06/19 00:18:16;;;;;;;4.72;3.37;;;;;;;;;;4404707;32;20582;-57
2022/06/19 00:20:42;;;;;;;8.60;5.00;;;;;;;;;;4404590;32;20229;-57
2022/06/19 00:23:08;;;;;;;7.40;4.78;;;;;;;;;;4403822;32;20342;-58
2022/06/19 00:25:34;;;;;;;7.53;3.80;;;;;;;;;;4404801;32;20644;-57
2022/06/19 00:28:00;;;;;;;5.82;3.25;;;;;;;;;;4404615;32;20213;-57
2022/06/19 00:30:26;;;;;;;6.62;2.92;;;;;;;;;;4404398;32;20671;-57
2022/06/19 00:32:51;;;;;;;3.10;2.80;;;;;;;;;;4404690;32;20202;-57
2022/06/19 00:35:17;;;;;;;3.15;2.40;;;;;;;;;;4404564;32;20232;-57
2022/06/19 00:37:42;;;;;;;6.05;2.50;;;;;;;;;;4404290;32;20540;-58
2022/06/19 00:40:10;;;;;;;4.60;2.78;;;;;;;;;;4390087;32;20237;-57
2022/06/19 00:42:36;;;;;;;4.40;2.92;;;;;;;;;;4388909;32;20235;-57
2022/06/19 00:45:02;;;;;;;4.40;2.92;;;;;;;;;;4388900;32;20229;-57
2022/06/19 00:47:32;;;;;;;3.65;2.97;;;;;;;;;;4394398;32;20239;-58
2022/06/19 00:50:03;;;;;;;4.12;3.05;;;;;;;;;;4404274;32;20674;-58
2022/06/19 00:52:38;;;;;;;7.20;3.28;;;;;;;;;;4404551;32;20223;-58
2022/06/19 00:55:38;;;;;;;7.50;3.47;;;;;;;;;;4390825;32;20252;-57
2022/06/19 00:58:08;;;;;;;6.70;4.55;;;;;;;;;;4387495;32;20311;-57
2022/06/19 01:00:33;;;;;;;7.85;3.40;;;;;;;;;;4388610;32;20477;-58
2022/06/19 01:03:13;;;;;;;3.62;2.78;;;;;;;;;;4388884;32;20228;-57
2022/06/19 01:05:42;;;;;;;6.95;3.08;;;;;;;;;;4375295;32;20682;-57
2022/06/19 01:08:07;;;;;;;5.47;3.42;;;;;;;;;;4388741;32;20218;-58
2022/06/19 01:10:36;;;;;;;4.35;2.42;;;;;;;;;;4389143;32;20584;-57
2022/06/19 01:13:02;;;;;;;6.45;2.58;;;;;;;;;;4394130;32;20810;-57
2022/06/19 01:15:28;;;;;;;2.95;2.55;;;;;;;;;;4403603;32;20272;-57
2022/06/19 01:17:57;;;;;;;11.35;2.87;;;;;;;;;;4403180;32;20657;-57
2022/06/19 01:20:23;;;;;;;3.55;2.62;;;;;;;;;;4390034;32;20233;-57
2022/06/19 01:22:55;;;;;;;6.05;4.00;;;;;;;;;;4402677;32;20252;-57
2022/06/19 01:25:29;;;;;;;4.97;4.22;;;;;;;;;;4403892;32;20271;-57
2022/06/19 01:30:46;;;;;;;7.00;3.70;;;;;;;;;;4403675;32;20601;-57
2022/06/19 01:33:17;;;;;;;3.40;2.80;;;;;;;;;;4403789;32;20523;-57
2022/06/19 01:35:46;;;;;;;3.45;2.78;;;;;;;;;;4403780;32;20189;-57
2022/06/19 01:38:16;;;;;;;4.03;3.05;;;;;;;;;;4389344;32;20242;-57
2022/06/19 01:40:45;;;;;;;4.50;3.22;;;;;;;;;;4388640;32;20309;-57
2022/06/19 01:43:11;;;;;;;3.10;2.78;;;;;;;;;;4388597;32;20229;-57
2022/06/19 01:45:45;;;;;;;5.18;2.72;;;;;;;;;;4388210;32;20209;-57
2022/06/19 01:48:12;;;;;;;3.22;2.65;;;;;;;;;;4400100;32;20574;-57
2022/06/19 01:50:38;;;;;;;4.55;2.95;;;;;;;;;;4403603;32;20670;-56
2022/06/19 01:53:19;;;;;;;3.17;2.85;;;;;;;;;;4403574;32;20225;-56
2022/06/19 01:55:45;;;;;;;8.10;2.62;;;;;;;;;;4389565;32;20327;-56
2022/06/19 01:58:12;;;;;;;4.40;2.95;;;;;;;;;;4389386;32;20222;-56
2022/06/19 02:00:39;;;;;;;7.68;2.87;;;;;;;;;;4390089;32;20201;-56
2022/06/19 02:03:12;;;;;;;4.30;2.50;;;;;;;;;;4403360;32;20640;-56
2022/06/19 02:05:39;;;;;;;7.18;2.85;;;;;;;;;;4403073;32;20618;-56
2022/06/19 02:08:05;;;;;;;4.50;2.90;;;;;;;;;;4389217;32;20304;-57
2022/06/19 02:10:31;;;;;;;5.05;2.42;;;;;;;;;;4395893;32;20656;-57
2022/06/19 02:12:59;;;;;;;5.53;2.90;;;;;;;;;;4377544;32;20229;-57
2022/06/19 02:15:24;;;;;;;8.10;2.53;;;;;;;;;;4388090;32;20361;-57
2022/06/19 02:17:52;;;;;;;4.28;2.45;;;;;;;;;;4401202;32;20261;-57
2022/06/19 02:20:20;;;;;;;3.83;2.72;;;;;;;;;;4403047;32;20759;-57
2022/06/19 02:22:46;;;;;;;5.10;2.55;;;;;;;;;;4403270;32;20209;-57
2022/06/19 02:25:13;;;;;;;7.43;2.33;;;;;;;;;;4403090;32;20209;-56
2022/06/19 02:27:39;;;;;;;10.65;3.03;;;;;;;;;;4402915;32;20363;-57
2022/06/19 02:30:07;;;;;;;3.65;2.65;;;;;;;;;;4402562;32;20681;-57
2022/06/19 02:32:39;;;;;;;4.18;2.72;;;;;;;;;;4388956;32;20652;-56
2022/06/19 02:35:14;;;;;;;5.78;2.28;;;;;;;;;;4403023;32;20292;-56
2022/06/19 02:37:45;;;;;;;12.45;3.03;;;;;;;;;;4391904;32;20236;-56
2022/06/19 02:40:25;;;;;;;3.85;2.42;;;;;;;;;;4387692;32;20670;-57
2022/06/19 02:42:51;;;;;;;3.92;2.83;;;;;;;;;;4389139;32;20577;-57
2022/06/19 02:45:23;;;;;;;2.40;2.20;;;;;;;;;;4402653;32;20229;-56
2022/06/19 02:47:51;;;;;;;3.08;2.40;;;;;;;;;;4402416;32;20307;-56
2022/06/19 02:50:20;;;;;;;4.30;3.08;;;;;;;;;;4402730;32;20237;-56
2022/06/19 02:52:47;;;;;;;6.22;2.70;;;;;;;;;;4388785;32;20287;-58
2022/06/19 02:55:14;;;;;;;2.95;2.10;;;;;;;;;;4402948;32;20201;-57
2022/06/19 02:57:40;;;;;;;5.97;2.92;;;;;;;;;;4402580;32;20279;-57
2022/06/19 03:00:08;;;;;;;4.07;2.95;;;;;;;;;;4402288;32;20259;-57
2022/06/19 03:02:33;;;;;;;4.50;2.85;;;;;;;;;;4402568;32;20289;-57
2022/06/19 03:05:01;;;;;;;2.50;2.25;;;;;;;;;;4402844;32;20282;-57
2022/06/19 03:07:27;;;;;;;3.17;2.53;;;;;;;;;;4402757;32;20304;-57
2022/06/19 03:09:56;;;;;;;3.55;2.65;;;;;;;;;;4398978;32;20261;-57
2022/06/19 03:12:22;;;;;;;4.43;3.08;;;;;;;;;;4387396;32;20504;-57
2022/06/19 03:14:48;;;;;;;5.07;2.28;;;;;;;;;;4401227;32;20296;-57
2022/06/19 03:17:16;;;;;;;4.32;2.87;;;;;;;;;;4402600;32;20210;-57
2022/06/19 03:19:42;;;;;;;4.70;2.92;;;;;;;;;;4402646;32;20743;-56
2022/06/19 03:22:09;;;;;;;3.67;2.78;;;;;;;;;;4388598;32;20228;-56
2022/06/19 03:24:34;;;;;;;3.17;2.62;;;;;;;;;;4402650;32;20316;-56
2022/06/19 03:27:00;;;;;;;4.55;2.87;;;;;;;;;;4388690;32;20310;-56
2022/06/19 03:29:25;;;;;;;4.32;2.65;;;;;;;;;;4388975;32;20346;-56
2022/06/19 03:31:51;;;;;;;6.65;3.05;;;;;;;;;;4402335;32;20290;-56
2022/06/19 03:34:16;;;;;;;3.80;3.10;;;;;;;;;;4402636;32;20221;-56
2022/06/19 03:36:42;;;;;;;4.97;3.17;;;;;;;;;;4397497;32;20230;-55
2022/06/19 03:39:07;;;;;;;12.95;2.67;;;;;;;;;;4387348;32;20309;-56
2022/06/19 03:41:33;;;;;;;6.55;3.20;;;;;;;;;;4389431;32;20210;-56
2022/06/19 03:43:58;;;;;;;5.18;3.33;;;;;;;;;;4390044;32;20260;-56
2022/06/19 03:46:24;;;;;;;10.07;3.00;;;;;;;;;;4390390;32;20321;-56
2022/06/19 03:48:51;;;;;;;4.22;3.10;;;;;;;;;;4405111;32;20225;-56
2022/06/19 03:51:18;;;;;;;11.45;3.67;;;;;;;;;;4405072;32;20213;-56
2022/06/19 03:53:45;;;;;;;3.80;3.10;;;;;;;;;;4405086;32;20237;-56
2022/06/19 03:56:16;;;;;;;5.30;3.40;;;;;;;;;;4404952;32;20251;-56
2022/06/19 03:58:47;;;;;;;3.30;3.00;;;;;;;;;;4404996;32;20234;-56
2022/06/19 04:01:19;;;;;;;3.03;2.53;;;;;;;;;;4405239;32;20216;-56
2022/06/19 04:03:46;;;;;;;3.58;2.85;;;;;;;;;;4405185;32;20375;-56
2022/06/19 04:06:13;;;;;;;6.22;2.90;;;;;;;;;;4404952;32;20277;-56
2022/06/19 04:08:39;;;;;;;5.45;3.08;;;;;;;;;;4404943;32;20225;-56
2022/06/19 04:11:06;;;;;;;9.52;2.92;;;;;;;;;;4404648;32;20335;-56
2022/06/19 04:13:33;;;;;;;3.72;2.45;;;;;;;;;;4404946;32;20232;-57
2022/06/19 04:15:59;;;;;;;4.95;3.03;;;;;;;;;;4388233;32;20233;-57
2022/06/19 04:18:25;;;;;;;4.57;3.28;;;;;;;;;;4394050;32;20618;-57
2022/06/19 04:20:51;;;;;;;5.10;3.10;;;;;;;;;;4403660;32;20689;-57
2022/06/19 04:23:16;;;;;;;5.78;3.10;;;;;;;;;;4404733;32;20255;-57
2022/06/19 04:25:43;;;;;;;3.35;2.75;;;;;;;;;;4404965;32;20202;-57
2022/06/19 04:28:09;;;;;;;5.35;3.50;;;;;;;;;;4404270;32;20213;-57
2022/06/19 04:30:36;;;;;;;4.22;2.97;;;;;;;;;;4404854;32;20309;-57
2022/06/19 04:33:01;;;;;;;5.62;3.30;;;;;;;;;;4404698;32;20274;-57
2022/06/19 04:35:27;;;;;;;4.97;3.17;;;;;;;;;;4404305;32;20259;-57
2022/06/19 04:37:53;;;;;;;7.32;3.37;;;;;;;;;;4391939;32;20229;-57
2022/06/19 04:40:18;;;;;;;4.05;3.05;;;;;;;;;;4389463;32;20290;-56
2022/06/19 04:42:44;;;;;;;10.25;3.40;;;;;;;;;;4388914;32;20272;-56
2022/06/19 04:45:10;;;;;;;8.32;3.12;;;;;;;;;;4389128;32;20252;-56
2022/06/19 04:47:36;;;;;;;4.80;3.17;;;;;;;;;;4396999;32;20243;-56
2022/06/19 04:50:01;;;;;;;4.82;3.62;;;;;;;;;;4404345;32;20245;-56
2022/06/19 04:52:27;;;;;;;4.03;3.33;;;;;;;;;;4403737;32;20268;-56
2022/06/19 04:54:52;;;;;;;4.22;3.12;;;;;;;;;;4404396;32;20222;-56
2022/06/19 04:57:17;;;;;;;8.40;3.20;;;;;;;;;;4403811;32;20244;-56
2022/06/19 04:59:43;;;;;;;3.80;2.80;;;;;;;;;;4404094;32;20225;-55
2022/06/19 05:02:13;;;;;;;6.35;3.00;;;;;;;;;;4404524;32;20282;-56
2022/06/19 05:04:39;;;;;;;6.45;3.70;;;;;;;;;;4404531;32;20218;-56
2022/06/19 05:07:04;;;;;;;7.45;3.58;;;;;;;;;;4404095;32;20675;-56
2022/06/19 05:09:30;;;;;;;3.95;3.25;;;;;;;;;;4389289;32;20617;-56
2022/06/19 05:11:55;;;;;;;4.40;3.37;;;;;;;;;;4388795;32;20286;-56
2022/06/19 05:14:21;;;;;;;9.95;3.70;;;;;;;;;;4391000;32;20484;-56
2022/06/19 05:16:47;;;;;;;4.55;2.85;;;;;;;;;;4404007;32;20586;-56
2022/06/19 05:19:13;;;;;;;16.67;3.83;;;;;;;;;;4390247;32;20224;-56
2022/06/19 05:21:39;;;;;;;5.03;3.53;;;;;;;;;;4403913;32;20359;-55
2022/06/19 05:24:04;;;;;;;4.12;3.00;;;;;;;;;;4403849;32;20806;-55
2022/06/19 05:26:34;;;;;;;3.92;3.12;;;;;;;;;;4403894;32;20236;-56
2022/06/19 05:29:00;;;;;;;4.47;3.25;;;;;;;;;;4389757;32;20229;-56
2022/06/19 05:31:26;;;;;;;6.22;3.47;;;;;;;;;;4403481;32;20272;-57
2022/06/19 05:33:53;;;;;;;5.85;3.65;;;;;;;;;;4403369;32;20592;-56
2022/06/19 05:36:20;;;;;;;4.15;2.90;;;;;;;;;;4402960;32;20216;-56
2022/06/19 05:38:46;;;;;;;11.05;3.53;;;;;;;;;;4403665;32;20229;-56
2022/06/19 05:41:11;;;;;;;5.60;3.85;;;;;;;;;;4403373;32;20270;-56
2022/06/19 05:43:37;;;;;;;9.02;3.50;;;;;;;;;;4403137;32;20237;-56
2022/06/19 05:46:07;;;;;;;4.15;3.37;;;;;;;;;;4403124;32;20281;-56
2022/06/19 05:48:34;;;;;;;4.05;3.28;;;;;;;;;;4403180;32;20677;-56
2022/06/19 05:51:04;;;;;;;6.35;3.50;;;;;;;;;;4403108;32;20205;-56
2022/06/19 05:53:32;;;;;;;5.00;3.40;;;;;;;;;;4403374;32;20605;-56
2022/06/19 05:55:58;;;;;;;6.10;3.83;;;;;;;;;;4403331;32;20202;-56
2022/06/19 05:58:24;;;;;;;4.78;3.97;;;;;;;;;;4401617;32;20301;-56
2022/06/19 06:00:50;;;;;;;4.22;3.65;;;;;;;;;;4403147;32;20217;-55
2022/06/19 06:03:18;;;;;;;18.60;3.90;;;;;;;;;;4403376;32;20669;-56
2022/06/19 06:05:44;;;;;;;5.62;3.50;;;;;;;;;;4402985;32;20210;-56
2022/06/19 06:08:11;;;;;;;4.87;3.70;;;;;;;;;;4403019;32;20660;-56
2022/06/19 06:10:36;;;;;;;4.65;4.15;;;;;;;;;;4403006;32;20201;-56
2022/06/19 06:13:02;;;;;;;7.65;3.53;;;;;;;;;;4402351;32;20573;-56
2022/06/19 06:15:29;;;;;;;7.15;3.40;;;;;;;;;;4393452;32;20323;-56
2022/06/19 06:17:54;;;;;;;5.40;3.92;;;;;;;;;;4388627;32;20291;-56
2022/06/19 06:20:20;;;;;;;5.55;3.83;;;;;;;;;;4402849;32;20228;-56
2022/06/19 06:22:45;;;;;;;4.03;3.53;;;;;;;;;;4402613;32;20218;-56
2022/06/19 06:25:11;;;;;;;7.22;3.80;;;;;;;;;;4401413;32;20213;-56
2022/06/19 06:27:37;;;;;;;5.12;3.50;;;;;;;;;;4401632;32;20317;-56
2022/06/19 06:30:04;;;;;;;6.40;4.28;;;;;;;;;;4402406;32;20217;-56
2022/06/19 06:32:29;;;;;;;4.28;3.60;;;;;;;;;;4402694;32;20335;-56
2022/06/19 06:34:55;;;;;;;4.62;3.08;;;;;;;;;;4402213;32;20246;-56
2022/06/19 06:37:20;;;;;;;7.28;3.75;;;;;;;;;;4393458;32;20227;-56
2022/06/19 06:39:46;;;;;;;4.37;3.47;;;;;;;;;;4373899;32;20504;-56
2022/06/19 06:42:12;;;;;;;5.72;3.72;;;;;;;;;;4387267;32;20305;-56
2022/06/19 06:44:38;;;;;;;4.72;3.65;;;;;;;;;;4387745;32;20250;-56
2022/06/19 06:47:04;;;;;;;4.78;3.75;;;;;;;;;;4392141;32;20607;-56
2022/06/19 06:49:29;;;;;;;7.57;3.70;;;;;;;;;;4402200;32;20229;-56
2022/06/19 06:51:55;;;;;;;12.65;3.92;;;;;;;;;;4402769;32;20347;-56
2022/06/19 06:54:20;;;;;;;8.43;3.60;;;;;;;;;;4402961;32;20251;-56
2022/06/19 06:56:46;;;;;;;5.70;3.15;;;;;;;;;;4400990;32;20276;-56
2022/06/19 06:59:11;;;;;;;8.10;2.85;;;;;;;;;;4402327;32;20621;-56
2022/06/19 07:01:37;;;;;;;3.10;2.65;;;;;;;;;;4402334;32;20214;-56
2022/06/19 07:04:03;;;;;;;3.45;2.87;;;;;;;;;;4402282;32;20233;-56
2022/06/19 07:06:30;;;;;;;7.65;3.53;;;;;;;;;;4401104;32;20286;-57
2022/06/19 07:08:56;;;;;;;7.68;3.37;;;;;;;;;;4402673;32;20221;-57
2022/06/19 07:11:25;;;;;;;8.07;2.87;;;;;;;;;;4389116;32;20245;-57
2022/06/19 07:13:51;;;;;;;10.00;2.80;;;;;;;;;;4385952;32;20291;-56
2022/06/19 07:16:16;;;;;;;4.72;2.62;;;;;;;;;;4403368;32;20210;-56
2022/06/19 07:18:42;;;;;;;4.28;2.85;;;;;;;;;;4399141;32;20295;-56
2022/06/19 07:21:10;;;;;;;4.35;2.83;;;;;;;;;;4388811;32;20311;-57
2022/06/19 07:23:36;;;;;;;3.72;2.62;;;;;;;;;;4390494;32;20222;-56
2022/06/19 07:26:02;;;;;;;3.53;2.90;;;;;;;;;;4403633;32;20680;-56
2022/06/19 07:28:28;;;;;;;5.00;2.47;;;;;;;;;;4405128;32;20233;-57
2022/06/19 07:30:53;;;;;;;4.07;2.40;;;;;;;;;;4405298;32;20300;-56
2022/06/19 07:33:19;;;;;;;2.60;2.40;;;;;;;;;;4405440;32;20226;-56
2022/06/19 07:35:45;;;;;;;9.85;2.90;;;;;;;;;;4405255;32;20285;-56
2022/06/19 07:38:10;;;;;;;2.20;1.90;;;;;;;;;;4405445;32;20278;-56
2022/06/19 07:40:36;;;;;;;3.58;2.17;;;;;;;;;;4405208;32;20240;-57
2022/06/19 07:43:04;;;;;;;2.55;2.12;;;;;;;;;;4405037;32;20518;-57
2022/06/19 07:45:30;;;;;;;2.37;1.75;;;;;;;;;;4405412;32;20205;-56
2022/06/19 07:50:41;;;;;;;4.40;2.60;;;;;;;;;;4405513;32;20256;-57
2022/06/19 07:53:07;;;;;;;8.93;3.12;;;;;;;;;;4405165;32;20253;-57
2022/06/19 07:55:32;;;;;;;7.53;2.22;;;;;;;;;;4405171;32;20973;-56
2022/06/19 07:58:00;;;;;;;4.20;2.35;;;;;;;;;;4404771;32;20354;-57
2022/06/19 08:00:33;;;;;;;5.22;1.80;;;;;;;;;;4404913;32;20621;-57
2022/06/19 08:02:58;;;;;;;6.55;2.40;;;;;;;;;;4391086;32;20260;-57
2022/06/19 08:05:27;;;;;;;4.78;1.80;;;;;;;;;;4404910;32;20217;-56
2022/06/19 08:07:53;;;;;;;4.00;2.00;;;;;;;;;;4404735;32;20482;-56
2022/06/19 08:10:22;;;;;;;5.78;2.17;;;;;;;;;;4404843;32;20307;-56
2022/06/19 08:12:50;;;;;;;3.03;1.80;;;;;;;;;;4404094;32;20669;-56
2022/06/19 08:15:16;;;;;;;4.57;2.00;;;;;;;;;;4396660;32;20201;-57
2022/06/19 08:17:41;;;;;;;2.70;2.00;;;;;;;;;;4389837;32;20190;-56
2022/06/19 08:20:08;;;;;;;6.47;1.92;;;;;;;;;;4404268;32;20313;-55
2022/06/19 08:22:33;;;;;;;5.37;2.17;;;;;;;;;;4404808;32;20229;-56
2022/06/19 08:24:59;;;;;;;7.90;2.30;;;;;;;;;;4404544;32;20573;-56
2022/06/19 08:27:24;;;;;;;2.42;2.15;;;;;;;;;;4404010;32;20391;-56
2022/06/19 08:29:49;;;;;;;2.58;1.77;;;;;;;;;;4404426;32;20225;-56
2022/06/19 08:32:15;;;;;;;15.55;2.33;;;;;;;;;;4404305;32;20263;-56
2022/06/19 08:34:40;;;;;;;1.55;1.30;;;;;;;;;;4404321;32;20243;-56
2022/06/19 08:37:09;;;;;;;5.10;1.75;;;;;;;;;;4403880;32;20284;-56
2022/06/19 08:39:34;;;;;;;1.85;1.05;;;;;;;;;;4404259;32;20354;-56
2022/06/19 08:42:06;;;;;;;3.67;1.75;;;;;;;;;;4402529;32;20333;-56
2022/06/19 08:44:47;;;;;;;5.05;1.55;;;;;;;;;;4404465;32;20243;-56
2022/06/19 08:47:24;;;;;;;1.35;1.20;;;;;;;;;;4403716;32;20571;-56
2022/06/19 08:50:28;;;;;;;1.40;1.30;;;;;;;;;;4403741;32;20217;-56
2022/06/19 08:53:18;;;;;;;1.48;1.05;;;;;;;;;;4403705;32;20217;-56
2022/06/19 08:55:53;;;;;;;2.08;1.00;;;;;;;;;;4404001;32;20621;-56
2022/06/19 08:58:25;;;;;;;0.93;0.82;;;;;;;;;;4404012;32;20255;-56
2022/06/19 09:00:59;;;;;;;1.67;0.98;;;;;;;;;;4403737;32;20288;-56
2022/06/19 09:05:36;;;;;;;1.10;0.98;;;;;;;;;;4403929;32;20288;-57
2022/06/19 09:06:25;;;;;;;4.87;1.35;;;;;;;;;;4403648;32;20685;-57
2022/06/19 09:08:59;;;;;;;1.33;1.05;;;;;;;;;;4404062;32;20793;-56
2022/06/19 09:11:47;;;;;;;2.33;1.05;;;;;;;;;;4389818;32;20296;-57
2022/06/19 09:14:36;;;;;;;1.50;1.10;;;;;;;;;;4390284;32;20210;-57
2022/06/19 09:17:11;;;;;;;2.58;1.12;;;;;;;;;;4403408;32;20578;-56
2022/06/19 09:19:51;;;;;;;1.30;1.10;;;;;;;;;;4403660;32;20250;-57
2022/06/19 09:22:34;;;;;;;1.87;0.77;;;;;;;;;;4403703;32;20182;-57
2022/06/19 09:25:27;;;;;;;0.88;0.88;;;;;;;;;;4403554;32;20222;-57
2022/06/19 09:28:16;;;;;;;1.02;0.85;;;;;;;;;;4403114;32;20248;-56
2022/06/19 09:30:47;;;;;;;2.12;1.00;;;;;;;;;;4403482;32;20217;-57
2022/06/19 09:33:23;;;;;;;1.58;0.90;;;;;;;;;;4403353;32;20218;-56
2022/06/19 09:35:57;;;;;;;2.37;1.17;;;;;;;;;;4403354;32;20201;-57
2022/06/19 09:38:42;;;;;;;1.33;1.12;;;;;;;;;;4387845;32;20222;-57
2022/06/19 09:41:15;;;;;;;1.98;1.05;;;;;;;;;;4386492;32;20242;-56
2022/06/19 09:44:21;;;;;;;1.00;0.90;;;;;;;;;;4388242;32;20234;-56
2022/06/19 09:46:54;;;;;;;4.35;1.98;;;;;;;;;;4384684;32;20854;-56
2022/06/19 09:49:27;;;;;;;1.12;1.02;;;;;;;;;;4403299;32;20217;-56
2022/06/19 09:52:22;;;;;;;2.12;0.95;;;;;;;;;;4403113;32;20491;-57
2022/06/19 09:55:01;;;;;;;5.72;1.70;;;;;;;;;;4398803;32;20292;-56
2022/06/19 09:58:18;;;;;;;5.35;1.70;;;;;;;;;;4402875;32;20237;-58
2022/06/19 10:00:47;;;;;;;1.30;0.90;;;;;;;;;;4352894;32;20321;-57
2022/06/19 10:03:17;;;;;;;3.70;0.93;;;;;;;;;;4402903;32;20649;-57
2022/06/19 10:05:45;;;;;;;2.70;1.40;;;;;;;;;;4402686;32;20217;-57
2022/06/19 10:08:19;;;;;;;0.85;0.82;;;;;;;;;;4402360;32;20716;-57
2022/06/19 10:10:59;;;;;;;3.20;1.10;;;;;;;;;;4402745;32;20782;-58
2022/06/19 10:13:35;;;;;;;1.77;1.15;;;;;;;;;;4402495;32;20300;-57
2022/06/19 10:16:04;;;;;;;1.70;1.12;;;;;;;;;;4402611;32;20198;-57
2022/06/19 10:18:37;;;;;;;2.33;0.90;;;;;;;;;;4397738;32;20719;-57
2022/06/19 10:22:13;;;;;;;1.80;1.00;;;;;;;;;;4387695;32;20247;-58
2022/06/19 10:24:09;;;;;;;1.65;1.00;;;;;;;;;;4387458;32;20249;-58
2022/06/19 10:26:46;;;;;;;4.70;1.50;;;;;;;;;;4387081;32;20277;-58
2022/06/19 10:29:33;;;;;;;2.67;0.80;;;;;;;;;;4387861;32;20531;-58
2022/06/19 10:32:01;;;;;;;1.67;0.70;;;;;;;;;;4387578;32;20277;-58
2022/06/19 10:35:01;;;;;;;0.65;0.65;;;;;;;;;;4387617;32;20325;-58
2022/06/19 10:37:45;;;;;;;5.53;1.08;;;;;;;;;;4396932;32;20273;-58
2022/06/19 10:40:29;;;;;;;1.05;0.68;;;;;;;;;;4402978;32;20669;-58
2022/06/19 10:43:00;;;;;;;1.70;0.80;;;;;;;;;;4402295;32;20547;-58
2022/06/19 10:45:47;;;;;;;1.98;0.88;;;;;;;;;;4388535;32;20275;-57
2022/06/19 10:48:30;;;;;;;6.95;1.00;;;;;;;;;;4402282;32;20360;-58
2022/06/19 10:51:32;;;;;;;2.30;0.90;;;;;;;;;;4401414;32;20723;-58
2022/06/19 10:54:24;;;;;;;1.95;0.82;;;;;;;;;;4402616;32;20247;-58
2022/06/19 10:57:11;;;;;;;1.23;0.82;;;;;;;;;;4388191;32;20255;-58
2022/06/19 10:59:37;;;;;;;7.53;0.88;;;;;;;;;;4402650;32;20233;-58
2022/06/19 11:05:24;;;;;;;4.35;0.75;;;;;;;;;;4402497;32;20290;-58
2022/06/19 11:07:49;;;;;;;1.40;1.10;;;;;;;;;;4402527;32;20193;-58
2022/06/19 11:10:21;;;;;;;2.83;0.90;;;;;;;;;;4395652;32;20248;-58
2022/06/19 11:12:56;;;;;;;0.93;0.65;;;;;;;;;;4387518;32;20267;-58
2022/06/19 11:15:24;;;;;;;1.73;0.85;;;;;;;;;;4395645;32;20216;-58
2022/06/19 11:18:05;;;;;;;0.73;0.73;;;;;;;;;;4401383;32;20591;-58
2022/06/19 11:20:31;;;;;;;0.80;0.80;;;;;;;;;;4387347;32;20214;-58
2022/06/19 11:23:05;;;;;;;2.80;0.90;;;;;;;;;;4387073;32;20206;-58
2022/06/19 11:25:32;;;;;;;1.05;0.80;;;;;;;;;;4386860;32;20266;-57
2022/06/19 11:28:12;;;;;;;1.17;1.00;;;;;;;;;;4386970;32;20255;-57
2022/06/19 11:31:08;;;;;;;2.62;0.98;;;;;;;;;;4387473;32;20647;-57
2022/06/19 11:33:36;;;;;;;0.85;0.80;;;;;;;;;;4370897;32;20267;-57
2022/06/19 11:36:06;;;;;;;2.87;1.12;;;;;;;;;;4387777;32;20288;-57
2022/06/19 11:38:43;;;;;;;0.93;0.75;;;;;;;;;;4402247;32;20229;-57
2022/06/19 11:41:21;;;;;;;1.83;0.70;;;;;;;;;;4402036;32;20266;-57
2022/06/19 11:44:01;;;;;;;0.70;0.70;;;;;;;;;;4402380;32;20296;-56
2022/06/19 11:46:27;;;;;;;1.73;0.93;;;;;;;;;;4402110;32;20582;-57
2022/06/19 11:48:55;;;;;;;6.05;1.00;;;;;;;;;;4401911;32;20251;-56
2022/06/19 11:51:23;;;;;;;2.28;0.93;;;;;;;;;;4401957;32;20263;-57
2022/06/19 11:53:55;;;;;;;5.45;0.77;;;;;;;;;;4402088;32;20380;-57
2022/06/19 11:56:36;;;;;;;1.62;0.70;;;;;;;;;;4401508;32;20197;-57
2022/06/19 11:59:04;;;;;;;0.82;0.70;;;;;;;;;;4402067;32;20282;-57
2022/06/19 12:01:42;;;;;;;4.68;1.12;;;;;;;;;;4403038;32;20225;-56
2022/06/19 12:04:48;;;;;;;0.57;0.55;;;;;;;;;;4404748;32;20304;-58
2022/06/19 12:07:20;;;;;;;1.05;0.90;;;;;;;;;;4371355;32;20261;-57
2022/06/19 12:09:56;;;;;;;1.00;0.93;;;;;;;;;;4404613;32;20248;-57
2022/06/19 12:12:22;;;;;;;1.37;0.90;;;;;;;;;;4404707;32;20226;-56
2022/06/19 12:14:48;;;;;;;4.87;0.55;;;;;;;;;;4399424;32;20284;-56
2022/06/19 12:17:19;;;;;;;0.85;0.80;;;;;;;;;;4389526;32;20267;-56
2022/06/19 12:20:07;;;;;;;0.60;0.60;;;;;;;;;;4402491;32;20292;-56
2022/06/19 12:22:51;;;;;;;1.02;0.80;;;;;;;;;;4398459;32;20267;-56
2022/06/19 12:25:23;;;;;;;0.55;0.55;;;;;;;;;;4390597;32;20234;-57
2022/06/19 12:28:02;;;;;;;1.35;0.80;;;;;;;;;;4404371;32;20214;-57
2022/06/19 12:30:34;;;;;;;1.12;0.68;;;;;;;;;;4404581;32;20273;-57
2022/06/19 12:33:04;;;;;;;2.05;0.85;;;;;;;;;;4404333;32;20281;-56
2022/06/19 12:35:36;;;;;;;0.90;0.60;;;;;;;;;;4404690;32;20283;-56
2022/06/19 12:38:13;;;;;;;3.12;0.80;;;;;;;;;;4391037;32;20248;-56
2022/06/19 12:40:56;;;;;;;0.98;0.60;;;;;;;;;;4389040;32;20302;-56
2022/06/19 12:43:35;;;;;;;2.60;0.82;;;;;;;;;;4389352;32;20248;-56
2022/06/19 12:46:05;;;;;;;0.98;0.60;;;;;;;;;;4389258;32;20542;-56
2022/06/19 12:48:59;;;;;;;1.15;0.70;;;;;;;;;;4389207;32;20650;-57
2022/06/19 12:51:47;;;;;;;2.95;0.50;;;;;;;;;;4404414;32;20381;-57
2022/06/19 12:54:13;;;;;;;1.25;0.93;;;;;;;;;;4404040;32;20225;-57
2022/06/19 12:57:06;;;;;;;3.20;0.95;;;;;;;;;;4403882;32;20629;-57
2022/06/19 12:59:58;;;;;;;1.23;0.70;;;;;;;;;;4404265;32;20221;-56
2022/06/19 13:02:45;;;;;;;1.33;1.00;;;;;;;;;;4403175;32;20281;-56
2022/06/19 13:05:31;;;;;;;0.82;0.62;;;;;;;;;;4402429;32;20241;-57
2022/06/19 13:08:13;;;;;;;2.25;0.65;;;;;;;;;;4403922;32;20231;-56
2022/06/19 13:10:47;;;;;;;1.25;1.00;;;;;;;;;;4394847;32;20705;-57
2022/06/19 13:13:37;;;;;;;2.42;0.88;;;;;;;;;;4388059;32;20241;-57
2022/06/19 13:16:05;;;;;;;1.42;0.93;;;;;;;;;;4388559;32;20206;-56
2022/06/19 13:19:03;;;;;;;8.77;0.80;;;;;;;;;;4393657;32;20245;-56
2022/06/19 13:21:52;;;;;;;0.75;0.75;;;;;;;;;;4393359;32;20290;-56
2022/06/19 13:24:35;;;;;;;1.23;0.82;;;;;;;;;;4404263;32;20329;-56
2022/06/19 13:27:14;;;;;;;1.83;0.77;;;;;;;;;;4403541;32;20318;-56
2022/06/19 13:30:09;;;;;;;1.08;0.60;;;;;;;;;;4403935;32;20348;-56
2022/06/19 13:33:15;;;;;;;3.78;2.37;;;;;;;;;;4404105;32;20275;-56
2022/06/19 13:36:00;;;;;;;2.20;0.50;;;;;;;;;;4355086;32;20273;-57
2022/06/19 13:38:41;;;;;;;0.80;0.80;;;;;;;;;;4399141;32;20404;-57
2022/06/19 13:41:34;;;;;;;0.70;0.70;;;;;;;;;;4401359;32;20564;-57
2022/06/19 13:44:08;;;;;;;0.60;0.60;;;;;;;;;;4395477;32;20359;-57
2022/06/19 13:46:53;;;;;;;0.70;0.70;;;;;;;;;;4403216;32;20273;-58
2022/06/19 13:49:30;;;;;;;2.08;0.70;;;;;;;;;;4403473;32;20554;-57
2022/06/19 13:52:01;;;;;;;3.65;0.90;;;;;;;;;;4403271;32;20247;-56
2022/06/19 13:54:39;;;;;;;2.15;0.90;;;;;;;;;;4402621;32;20292;-57
2022/06/19 13:57:14;;;;;;;1.67;1.10;;;;;;;;;;4403247;32;20296;-57
2022/06/19 13:59:48;;;;;;;1.58;0.80;;;;;;;;;;4402186;32;20217;-56
2022/06/19 14:02:56;;;;;;;15.90;1.20;;;;;;;;;;4402124;32;20219;-57
2022/06/19 14:05:40;;;;;;;1.40;0.90;;;;;;;;;;4397311;32;20413;-59
2022/06/19 14:08:21;;;;;;;0.85;0.73;;;;;;;;;;4403112;32;20674;-57
2022/06/19 14:10:54;;;;;;;1.23;0.90;;;;;;;;;;4402962;32;20570;-57
2022/06/19 14:13:34;;;;;;;1.62;0.82;;;;;;;;;;4403390;32;20255;-57
2022/06/19 14:16:14;;;;;;;3.00;1.00;;;;;;;;;;4393329;32;20193;-57
2022/06/19 14:18:52;;;;;;;1.17;0.90;;;;;;;;;;4393723;32;20248;-57
2022/06/19 14:21:39;;;;;;;0.55;0.55;;;;;;;;;;4403227;32;20240;-57
2022/06/19 14:24:23;;;;;;;4.18;0.98;;;;;;;;;;4402417;32;20679;-57
2022/06/19 14:27:08;;;;;;;4.12;0.80;;;;;;;;;;4402756;32;20205;-58
2022/06/19 14:29:52;;;;;;;2.37;0.80;;;;;;;;;;4401774;32;20213;-58
2022/06/19 14:32:28;;;;;;;0.88;0.88;;;;;;;;;;4402669;32;20231;-58
2022/06/19 14:35:10;;;;;;;1.87;0.80;;;;;;;;;;4389720;32;20616;-58
2022/06/19 14:37:38;;;;;;;1.23;0.90;;;;;;;;;;4391938;32;20311;-58
2022/06/19 14:40:25;;;;;;;3.70;1.08;;;;;;;;;;4373699;32;20234;-58
2022/06/19 14:43:03;;;;;;;2.60;0.95;;;;;;;;;;4387251;32;20210;-58
2022/06/19 14:46:03;;;;;;;4.85;1.27;;;;;;;;;;4387613;32;20403;-58
2022/06/19 14:49:06;;;;;;;1.02;0.73;;;;;;;;;;4400736;32;20251;-58
2022/06/19 14:51:54;;;;;;;1.55;1.05;;;;;;;;;;4402207;32;20238;-58
2022/06/19 14:54:31;;;;;;;2.25;1.20;;;;;;;;;;4372316;32;20298;-57
2022/06/19 14:57:06;;;;;;;3.15;1.48;;;;;;;;;;4400508;32;20221;-58
2022/06/19 14:59:40;;;;;;;1.37;0.90;;;;;;;;;;4401984;32;20258;-58
2022/06/19 15:02:14;;;;;;;3.50;1.33;;;;;;;;;;4402353;32;20725;-58
2022/06/19 15:04:51;;;;;;;1.30;0.80;;;;;;;;;;4402533;32;20596;-57
2022/06/19 15:07:23;;;;;;;3.67;0.90;;;;;;;;;;4402491;32;20641;-57
2022/06/19 15:09:52;;;;;;;6.62;1.30;;;;;;;;;;4399396;32;20253;-58
2022/06/19 15:12:25;;;;;;;1.60;1.10;;;;;;;;;;4387372;32;20295;-58
2022/06/19 15:14:51;;;;;;;2.92;1.25;;;;;;;;;;4387694;32;20627;-58
2022/06/19 15:17:38;;;;;;;6.18;1.20;;;;;;;;;;4387454;32;20314;-58
2022/06/19 15:20:25;;;;;;;2.33;1.12;;;;;;;;;;4402372;32;20209;-57
2022/06/19 15:23:17;;;;;;;1.33;0.90;;;;;;;;;;4402204;32;20209;-58